createdAt,value
2018-09-18T00:01:28.852Z,17.40
2018-09-18T00:03:57.305Z,17.30
2018-09-18T00:06:25.810Z,17.40
2018-09-18T00:08:54.178Z,17.40
2018-09-18T00:11:22.651Z,17.40
2018-09-18T00:13:51.072Z,17.30
2018-09-18T00:16:19.493Z,17.30
2018-09-18T00:18:47.856Z,17.30
2018-09-18T00:21:16.229Z,17.30
2018-09-18T00:23:45.205Z,17.30
2018-09-18T00:26:13.644Z,17.30
2018-09-18T00:28:42.077Z,17.40
2018-09-18T00:31:10.497Z,17.30
2018-09-18T00:33:39.488Z,17.30
2018-09-18T00:36:08.137Z,17.30
2018-09-18T00:38:36.573Z,17.20
2018-09-18T00:41:05.343Z,17.60
2018-09-18T00:43:33.815Z,17.40
2018-09-18T00:46:02.216Z,17.50
2018-09-18T00:48:30.749Z,17.50
2018-09-18T00:50:59.288Z,17.40
2018-09-18T00:53:27.831Z,17.30
2018-09-18T00:55:56.245Z,17.30
2018-09-18T00:58:24.911Z,17.30
2018-09-18T01:00:53.309Z,17.20
2018-09-18T01:03:21.723Z,17.10
2018-09-18T01:05:50.179Z,17.00
2018-09-18T01:08:18.511Z,17.00
2018-09-18T01:10:46.947Z,17.00
2018-09-18T01:13:15.376Z,16.90
2018-09-18T01:15:43.835Z,17.00
2018-09-18T01:18:12.507Z,17.00
2018-09-18T01:20:40.943Z,17.00
2018-09-18T01:23:09.419Z,16.90
2018-09-18T01:25:37.915Z,16.90
2018-09-18T01:28:06.326Z,16.90
2018-09-18T01:30:34.707Z,16.90
2018-09-18T01:33:03.160Z,16.90
2018-09-18T01:35:31.561Z,16.80
2018-09-18T01:37:59.944Z,16.70
2018-09-18T01:40:28.344Z,16.70
2018-09-18T01:42:56.714Z,16.80
2018-09-18T01:45:25.387Z,16.80
2018-09-18T01:47:54.004Z,16.80
2018-09-18T01:50:22.400Z,16.70
2018-09-18T01:52:50.794Z,16.80
2018-09-18T01:55:20.078Z,16.70
2018-09-18T01:57:48.663Z,16.70
2018-09-18T02:00:17.045Z,16.60
2018-09-18T02:02:45.430Z,16.60
2018-09-18T02:05:13.828Z,16.60
2018-09-18T02:07:42.302Z,16.70
2018-09-18T02:10:10.699Z,16.70
2018-09-18T02:12:39.115Z,16.60
2018-09-18T02:15:07.545Z,16.60
2018-09-18T02:17:35.967Z,16.50
2018-09-18T02:20:05.587Z,16.60
2018-09-18T02:22:34.107Z,16.50
2018-09-18T02:25:02.549Z,16.70
2018-09-18T02:27:31.149Z,16.60
2018-09-18T02:29:59.545Z,16.60
2018-09-18T02:32:27.969Z,16.60
2018-09-18T02:34:56.343Z,16.70
2018-09-18T02:37:24.771Z,16.60
2018-09-18T02:39:53.175Z,16.60
2018-09-18T02:42:22.054Z,16.60
2018-09-18T02:44:50.619Z,16.60
2018-09-18T02:47:19.011Z,16.60
2018-09-18T02:49:47.804Z,16.50
2018-09-18T02:52:16.199Z,16.60
2018-09-18T02:54:44.535Z,16.50
2018-09-18T02:57:14.107Z,16.50
2018-09-18T02:59:43.143Z,16.50
2018-09-18T03:02:11.923Z,16.50
2018-09-18T03:04:40.327Z,16.50
2018-09-18T03:07:08.815Z,16.50
2018-09-18T03:09:37.295Z,16.50
2018-09-18T03:12:05.951Z,16.50
2018-09-18T03:14:34.376Z,16.50
2018-09-18T03:17:02.966Z,16.40
2018-09-18T03:19:31.449Z,16.40
2018-09-18T03:21:59.807Z,16.40
2018-09-18T03:24:28.218Z,16.40
2018-09-18T03:26:56.616Z,16.40
2018-09-18T03:29:25.015Z,16.50
2018-09-18T03:31:53.414Z,16.40
2018-09-18T03:34:21.816Z,16.40
2018-09-18T03:36:50.212Z,16.50
2018-09-18T03:39:18.666Z,16.50
2018-09-18T03:41:47.542Z,16.50
2018-09-18T03:44:15.935Z,16.60
2018-09-18T03:46:44.307Z,16.60
2018-09-18T03:49:12.680Z,16.60
2018-09-18T03:51:41.089Z,16.70
2018-09-18T03:54:09.992Z,16.60
2018-09-18T03:56:38.319Z,16.60
2018-09-18T03:59:06.670Z,16.60
2018-09-18T04:01:35.038Z,16.60
2018-09-18T04:04:03.504Z,16.50
2018-09-18T04:06:31.908Z,16.50
2018-09-18T04:09:00.349Z,16.50
2018-09-18T04:11:28.705Z,16.40
2018-09-18T04:13:57.098Z,16.40
2018-09-18T04:16:25.492Z,16.30
2018-09-18T04:18:55.973Z,16.40
2018-09-18T04:21:37.227Z,16.30
2018-09-18T04:24:06.247Z,16.40
2018-09-18T04:26:34.689Z,16.40
2018-09-18T04:29:05.503Z,16.40
2018-09-18T04:31:34.223Z,16.30
2018-09-18T04:34:02.663Z,16.30
2018-09-18T04:39:11.793Z,16.30
2018-09-18T04:41:41.591Z,16.40
2018-09-18T04:44:10.796Z,16.40
2018-09-18T04:46:39.194Z,16.30
2018-09-18T04:49:07.677Z,16.30
2018-09-18T04:51:36.170Z,16.30
2018-09-18T04:54:04.559Z,16.30
2018-09-18T04:56:33.635Z,16.40
2018-09-18T04:59:02.007Z,16.40
2018-09-18T05:01:30.427Z,16.50
2018-09-18T05:03:58.814Z,16.50
2018-09-18T05:06:27.204Z,16.60
2018-09-18T05:08:55.610Z,16.80
2018-09-18T05:11:23.969Z,16.90
2018-09-18T05:13:52.368Z,17.00
2018-09-18T05:16:21.171Z,17.20
2018-09-18T05:18:49.956Z,17.50
2018-09-18T05:21:18.340Z,17.70
2018-09-18T05:23:46.726Z,17.60
2018-09-18T05:26:15.216Z,17.30
2018-09-18T05:28:43.624Z,17.30
2018-09-18T05:31:12.033Z,17.70
2018-09-18T05:33:40.451Z,18.00
2018-09-18T05:36:08.788Z,18.40
2018-09-18T05:38:37.252Z,18.50
2018-09-18T05:41:05.728Z,18.50
2018-09-18T05:43:34.110Z,18.70
2018-09-18T05:46:02.461Z,18.80
2018-09-18T05:48:34.792Z,18.90
2018-09-18T05:51:03.662Z,19.00
2018-09-18T05:53:32.028Z,19.00
2018-09-18T05:56:00.484Z,19.40
2018-09-18T05:58:29.502Z,19.20
2018-09-18T06:00:57.932Z,19.00
2018-09-18T06:03:26.674Z,19.10
2018-09-18T06:05:56.201Z,19.20
2018-09-18T06:08:24.794Z,19.40
2018-09-18T06:10:53.181Z,19.40
2018-09-18T06:13:21.509Z,19.50
2018-09-18T06:15:49.917Z,19.80
2018-09-18T06:18:18.279Z,20.20
2018-09-18T06:20:46.603Z,20.30
2018-09-18T06:23:14.966Z,20.20
2018-09-18T06:25:43.402Z,20.30
2018-09-18T06:28:11.723Z,20.30
2018-09-18T06:30:40.087Z,20.60
2018-09-18T06:33:08.657Z,20.60
2018-09-18T06:35:37.023Z,20.70
2018-09-18T06:38:05.604Z,20.80
2018-09-18T06:40:34.012Z,21.00
2018-09-18T06:43:03.098Z,21.00
2018-09-18T06:45:31.471Z,21.00
2018-09-18T06:47:59.881Z,21.20
2018-09-18T06:50:28.307Z,21.40
2018-09-18T06:52:56.711Z,21.50
2018-09-18T06:55:25.099Z,21.40
2018-09-18T06:57:53.477Z,21.30
2018-09-18T07:00:21.815Z,21.20
2018-09-18T07:02:50.195Z,21.50
2018-09-18T07:05:18.582Z,22.00
2018-09-18T07:07:47.043Z,22.10
2018-09-18T07:10:15.351Z,22.40
2018-09-18T07:12:43.778Z,22.40
2018-09-18T07:15:12.157Z,22.10
2018-09-18T07:17:40.473Z,21.90
2018-09-18T07:20:09.039Z,22.40
2018-09-18T07:22:37.389Z,22.60
2018-09-18T07:25:05.751Z,23.20
2018-09-18T07:27:34.417Z,23.90
2018-09-18T07:30:02.778Z,24.50
2018-09-18T07:32:31.109Z,24.60
2018-09-18T07:34:59.441Z,25.00
2018-09-18T07:37:27.907Z,25.40
2018-09-18T07:39:56.351Z,25.30
2018-09-18T07:42:24.712Z,25.90
2018-09-18T07:44:53.088Z,26.00
2018-09-18T07:47:21.432Z,26.10
2018-09-18T07:49:51.070Z,25.60
2018-09-18T07:52:19.509Z,26.00
2018-09-18T07:54:47.808Z,26.10
2018-09-18T07:57:16.132Z,26.20
2018-09-18T07:59:44.831Z,27.90
2018-09-18T08:02:13.209Z,27.20
2018-09-18T08:04:41.562Z,27.00
2018-09-18T08:07:09.967Z,26.90
2018-09-18T08:09:38.329Z,26.70
2018-09-18T08:12:06.375Z,26.20
2018-09-18T08:14:34.755Z,26.50
2018-09-18T08:17:03.245Z,27.10
2018-09-18T08:19:31.810Z,28.00
2018-09-18T08:22:00.224Z,27.80
2018-09-18T08:24:28.706Z,27.60
2018-09-18T08:26:57.163Z,27.70
2018-09-18T08:29:25.492Z,27.20
2018-09-18T08:31:53.899Z,28.30
2018-09-18T08:34:22.378Z,28.80
2018-09-18T08:36:50.782Z,29.30
2018-09-18T08:39:19.235Z,30.00
2018-09-18T08:41:47.626Z,29.40
2018-09-18T08:44:16.000Z,29.60
2018-09-18T08:46:44.354Z,29.80
2018-09-18T08:49:12.734Z,29.20
2018-09-18T08:51:41.110Z,30.40
2018-09-18T08:54:09.560Z,29.90
2018-09-18T08:56:38.952Z,29.70
2018-09-18T08:59:07.385Z,30.30
2018-09-18T09:01:35.794Z,29.80
2018-09-18T09:04:04.176Z,30.10
2018-09-18T09:06:32.635Z,29.80
2018-09-18T09:09:01.038Z,29.60
2018-09-18T09:11:29.399Z,30.30
2018-09-18T09:13:57.772Z,30.10
2018-09-18T09:16:26.152Z,30.20
2018-09-18T09:18:54.544Z,31.00
2018-09-18T09:21:23.013Z,30.70
2018-09-18T09:23:51.365Z,31.50
2018-09-18T09:26:19.780Z,32.00
2018-09-18T09:28:48.767Z,32.40
2018-09-18T09:31:17.190Z,33.30
2018-09-18T09:33:45.689Z,34.20
2018-09-18T09:36:14.086Z,31.90
2018-09-18T09:38:42.478Z,32.30
2018-09-18T09:41:10.828Z,31.60
2018-09-18T09:43:39.207Z,31.10
2018-09-18T09:46:07.598Z,32.50
2018-09-18T09:48:36.606Z,32.20
2018-09-18T09:51:05.692Z,33.70
2018-09-18T09:53:34.410Z,33.10
2018-09-18T09:56:02.772Z,32.60
2018-09-18T09:58:31.180Z,33.70
2018-09-18T10:01:04.830Z,33.70
2018-09-18T10:03:33.197Z,33.70
2018-09-18T10:06:01.565Z,33.20
2018-09-18T10:08:29.951Z,32.90
2018-09-18T10:10:58.469Z,32.70
2018-09-18T10:13:26.753Z,33.20
2018-09-18T10:15:55.176Z,35.00
2018-09-18T10:18:23.910Z,35.10
2018-09-18T10:20:52.274Z,34.70
2018-09-18T10:23:20.669Z,34.40
2018-09-18T10:25:49.025Z,35.90
2018-09-18T10:28:17.833Z,37.30
2018-09-18T10:30:46.214Z,36.70
2018-09-18T10:33:14.592Z,34.70
2018-09-18T10:35:43.011Z,33.80
2018-09-18T10:38:11.366Z,33.80
2018-09-18T10:40:39.700Z,34.70
2018-09-18T10:43:08.071Z,36.00
2018-09-18T10:45:36.459Z,34.20
2018-09-18T10:48:04.872Z,35.70
2018-09-18T10:50:33.292Z,35.60
2018-09-18T10:53:02.965Z,37.60
2018-09-18T10:55:31.436Z,37.50
2018-09-18T10:57:59.716Z,37.40
2018-09-18T11:00:28.166Z,36.90
2018-09-18T11:02:56.546Z,37.00
2018-09-18T11:05:25.076Z,34.70
2018-09-18T11:07:53.484Z,36.10
2018-09-18T11:10:21.910Z,37.70
2018-09-18T11:12:50.223Z,35.90
2018-09-18T11:15:18.706Z,35.50
2018-09-18T11:17:46.992Z,35.90
2018-09-18T11:20:15.768Z,36.00
2018-09-18T11:22:44.854Z,37.30
2018-09-18T11:25:13.306Z,35.10
2018-09-18T11:27:41.634Z,34.00
2018-09-18T11:30:10.054Z,35.00
2018-09-18T11:32:38.498Z,35.90
2018-09-18T11:35:06.854Z,36.10
2018-09-18T11:37:35.164Z,36.60
2018-09-18T11:40:03.873Z,34.30
2018-09-18T11:42:32.266Z,34.00
2018-09-18T11:45:01.839Z,35.00
2018-09-18T11:47:30.207Z,35.40
2018-09-18T11:49:58.928Z,35.00
2018-09-18T11:52:28.044Z,36.10
2018-09-18T11:54:56.461Z,36.20
2018-09-18T11:57:24.840Z,35.50
2018-09-18T11:59:53.221Z,35.00
2018-09-18T12:02:21.675Z,34.30
2018-09-18T12:04:50.257Z,35.00
2018-09-18T12:07:18.632Z,34.40
2018-09-18T12:09:47.009Z,34.50
2018-09-18T12:12:15.387Z,34.70
2018-09-18T12:14:43.933Z,36.00
2018-09-18T12:17:12.573Z,36.70
2018-09-18T12:19:41.001Z,36.20
2018-09-18T12:22:09.396Z,34.50
2018-09-18T12:24:37.735Z,34.50
2018-09-18T12:27:06.177Z,35.10
2018-09-18T12:29:34.676Z,35.00
2018-09-18T12:32:03.699Z,34.60
2018-09-18T12:34:32.109Z,36.00
2018-09-18T12:37:00.499Z,34.80
2018-09-18T12:39:28.892Z,35.10
2018-09-18T12:41:57.418Z,36.20
2018-09-18T12:44:25.696Z,34.70
2018-09-18T12:46:54.082Z,34.10
2018-09-18T12:49:22.524Z,34.30
2018-09-18T12:51:50.875Z,35.30
2018-09-18T12:54:19.300Z,35.40
2018-09-18T12:56:47.793Z,34.40
2018-09-18T12:59:16.139Z,34.50
2018-09-18T13:01:44.484Z,34.20
2018-09-18T13:04:13.595Z,35.70
2018-09-18T13:06:42.943Z,35.20
2018-09-18T13:09:13.211Z,35.60
2018-09-18T13:11:41.610Z,33.70
2018-09-18T13:14:10.085Z,34.20
2018-09-18T13:16:38.468Z,34.00
2018-09-18T13:19:07.938Z,34.60
2018-09-18T13:21:36.288Z,33.60
2018-09-18T13:24:04.625Z,33.20
2018-09-18T13:26:33.499Z,33.10
2018-09-18T13:29:01.843Z,33.60
2018-09-18T13:31:30.825Z,33.60
2018-09-18T13:33:59.187Z,34.50
2018-09-18T13:36:27.600Z,34.00
2018-09-18T13:38:55.916Z,33.70
2018-09-18T13:41:24.292Z,32.90
2018-09-18T13:43:52.848Z,33.20
2018-09-18T13:46:21.256Z,33.50
2018-09-18T13:48:50.201Z,34.00
2018-09-18T13:51:18.604Z,33.00
2018-09-18T13:53:46.983Z,33.10
2018-09-18T13:56:15.397Z,33.10
2018-09-18T13:58:43.741Z,33.80
2018-09-18T14:01:12.244Z,33.30
2018-09-18T14:03:40.539Z,33.50
2018-09-18T14:06:09.055Z,33.60
2018-09-18T14:08:37.400Z,32.90
2018-09-18T14:11:05.805Z,32.80
2018-09-18T14:13:34.169Z,32.70
2018-09-18T14:16:02.563Z,32.40
2018-09-18T14:18:31.035Z,32.00
2018-09-18T14:20:59.385Z,32.10
2018-09-18T14:23:27.812Z,32.10
2018-09-18T14:25:56.169Z,32.20
2018-09-18T14:28:24.714Z,32.20
2018-09-18T14:30:53.080Z,32.00
2018-09-18T14:33:21.452Z,32.20
2018-09-18T14:35:49.959Z,32.40
2018-09-18T14:38:18.473Z,31.90
2018-09-18T14:40:46.799Z,31.60
2018-09-18T14:43:15.257Z,31.70
2018-09-18T14:45:43.973Z,32.20
2018-09-18T14:48:12.342Z,31.90
2018-09-18T14:50:40.728Z,31.30
2018-09-18T14:53:09.174Z,31.30
2018-09-18T14:55:37.555Z,31.40
2018-09-18T14:58:05.919Z,31.20
2018-09-18T15:00:34.689Z,31.10
2018-09-18T15:03:03.077Z,31.20
2018-09-18T15:05:31.503Z,30.90
2018-09-18T15:07:59.887Z,31.00
2018-09-18T15:10:28.263Z,30.90
2018-09-18T15:12:56.667Z,30.50
2018-09-18T15:15:25.093Z,30.60
2018-09-18T15:17:53.942Z,30.50
2018-09-18T15:20:22.282Z,30.50
2018-09-18T15:22:50.604Z,30.30
2018-09-18T15:25:19.052Z,30.20
2018-09-18T15:27:47.639Z,30.00
2018-09-18T15:30:16.492Z,30.10
2018-09-18T15:32:44.892Z,30.20
2018-09-18T15:35:13.281Z,30.10
2018-09-18T15:37:41.663Z,30.30
2018-09-18T15:40:10.030Z,30.20
2018-09-18T15:42:38.371Z,30.30
2018-09-18T15:45:06.768Z,30.20
2018-09-18T15:47:35.159Z,30.10
2018-09-18T15:50:03.823Z,30.00
2018-09-18T15:52:32.196Z,30.00
2018-09-18T15:55:00.849Z,29.90
2018-09-18T15:57:29.522Z,30.10
2018-09-18T15:59:57.854Z,29.80
2018-09-18T16:02:26.296Z,29.90
2018-09-18T16:04:54.728Z,29.90
2018-09-18T16:07:23.554Z,29.90
2018-09-18T16:09:51.986Z,29.90
2018-09-18T16:12:20.411Z,29.80
2018-09-18T16:14:48.784Z,29.70
2018-09-18T16:17:17.899Z,29.60
2018-09-18T16:19:46.348Z,29.50
2018-09-18T16:22:15.599Z,29.60
2018-09-18T16:24:43.977Z,29.40
2018-09-18T16:27:12.688Z,29.50
2018-09-18T16:29:41.081Z,29.30
2018-09-18T16:32:09.475Z,29.30
2018-09-18T16:34:37.875Z,29.30
2018-09-18T16:37:06.387Z,29.10
2018-09-18T16:39:34.783Z,29.20
2018-09-18T16:42:03.176Z,28.90
2018-09-18T16:44:31.555Z,29.00
2018-09-18T16:47:00.007Z,28.90
2018-09-18T16:49:28.376Z,28.80
2018-09-18T16:51:56.807Z,28.80
2018-09-18T16:54:25.546Z,28.70
2018-09-18T16:56:54.476Z,28.70
2018-09-18T16:59:22.881Z,28.50
2018-09-18T17:01:52.971Z,28.50
2018-09-18T17:04:21.398Z,28.30
2018-09-18T17:06:49.900Z,28.10
2018-09-18T17:09:18.304Z,28.10
2018-09-18T17:11:46.714Z,28.10
2018-09-18T17:14:15.193Z,27.90
2018-09-18T17:16:43.562Z,27.80
2018-09-18T17:19:11.998Z,27.70
2018-09-18T17:21:40.416Z,27.60
2018-09-18T17:24:08.851Z,27.40
2018-09-18T17:26:37.557Z,27.30
2018-09-18T17:29:06.178Z,27.20
2018-09-18T17:31:35.073Z,27.10
2018-09-18T17:34:03.740Z,27.10
2018-09-18T17:36:32.138Z,27.00
2018-09-18T17:39:00.502Z,26.90
2018-09-18T17:41:29.194Z,26.80
2018-09-18T17:43:57.676Z,26.80
2018-09-18T17:46:26.862Z,26.70
2018-09-18T17:48:55.228Z,26.70
2018-09-18T17:51:23.582Z,26.60
2018-09-18T17:53:53.368Z,26.50
2018-09-18T17:56:22.013Z,26.30
2018-09-18T17:58:51.700Z,26.20
2018-09-18T18:01:20.059Z,26.20
2018-09-18T18:03:48.798Z,26.10
2018-09-18T18:06:18.438Z,26.00
2018-09-18T18:08:46.926Z,25.90
2018-09-18T18:11:15.323Z,25.80
2018-09-18T18:13:43.757Z,25.80
2018-09-18T18:16:12.143Z,25.70
2018-09-18T18:18:40.818Z,25.70
2018-09-18T18:21:09.237Z,25.70
2018-09-18T18:23:37.672Z,25.60
2018-09-18T18:26:06.311Z,25.50
2018-09-18T18:28:34.811Z,25.50
2018-09-18T18:31:03.238Z,25.50
2018-09-18T18:33:32.206Z,25.40
2018-09-18T18:36:00.830Z,25.50
2018-09-18T18:38:29.184Z,25.40
2018-09-18T18:40:57.892Z,25.50
2018-09-18T18:43:26.265Z,25.40
2018-09-18T18:45:54.723Z,25.40
2018-09-18T18:48:23.475Z,25.20
2018-09-18T18:50:52.473Z,25.10
2018-09-18T18:53:20.890Z,25.10
2018-09-18T18:55:49.337Z,25.10
2018-09-18T18:58:17.744Z,25.00
2018-09-18T19:00:46.298Z,25.00
2018-09-18T19:03:15.084Z,24.90
2018-09-18T19:05:43.689Z,24.80
2018-09-18T19:08:12.821Z,24.70
2018-09-18T19:10:41.243Z,24.60
2018-09-18T19:13:09.637Z,24.60
2018-09-18T19:15:38.080Z,24.50
2018-09-18T19:18:06.700Z,24.40
2018-09-18T19:20:35.112Z,24.40
2018-09-18T19:23:03.800Z,24.30
2018-09-18T19:25:32.281Z,24.30
2018-09-18T19:28:00.659Z,24.20
2018-09-18T19:30:29.075Z,24.10
2018-09-18T19:32:57.557Z,24.10
2018-09-18T19:35:25.946Z,24.00
2018-09-18T19:37:54.388Z,23.80
2018-09-18T19:40:22.855Z,23.80
2018-09-18T19:42:51.281Z,23.70
2018-09-18T19:45:19.777Z,23.70
2018-09-18T19:47:48.425Z,23.60
2018-09-18T19:50:18.362Z,23.70
2018-09-18T19:52:47.778Z,23.70
2018-09-18T19:55:16.797Z,23.60
2018-09-18T19:57:45.677Z,23.60
2018-09-18T20:00:14.295Z,23.50
2018-09-18T20:02:43.562Z,23.40
2018-09-18T20:05:12.344Z,23.50
2018-09-18T20:07:40.975Z,23.40
2018-09-18T20:10:09.396Z,23.30
2018-09-18T20:12:37.787Z,23.20
2018-09-18T20:15:06.443Z,23.10
2018-09-18T20:17:34.879Z,23.00
2018-09-18T20:20:03.299Z,23.00
2018-09-18T20:22:31.686Z,22.90
2018-09-18T20:25:00.057Z,22.90
2018-09-18T20:27:28.429Z,22.90
2018-09-18T20:29:56.882Z,22.90
2018-09-18T20:32:25.404Z,22.90
2018-09-18T20:34:53.892Z,22.80
2018-09-18T20:37:22.823Z,22.70
2018-09-18T20:39:51.203Z,22.60
2018-09-18T20:42:19.579Z,22.60
2018-09-18T20:44:47.963Z,22.50
2018-09-18T20:47:16.375Z,22.40
2018-09-18T20:49:44.785Z,22.40
2018-09-18T20:52:13.223Z,22.30
2018-09-18T20:54:41.621Z,22.30
2018-09-18T20:57:09.969Z,22.20
2018-09-18T20:59:38.375Z,22.10
2018-09-18T21:02:07.221Z,22.10
2018-09-18T21:04:35.551Z,22.10
2018-09-18T21:07:04.272Z,22.10
2018-09-18T21:09:32.678Z,22.00
2018-09-18T21:12:01.049Z,21.90
2018-09-18T21:14:29.483Z,21.90
2018-09-18T21:16:57.812Z,21.90
2018-09-18T21:19:26.170Z,21.90
2018-09-18T21:21:54.570Z,21.90
2018-09-18T21:24:23.400Z,21.90
2018-09-18T21:26:51.772Z,21.90
2018-09-18T21:29:21.049Z,21.80
2018-09-18T21:31:49.446Z,21.80
2018-09-18T21:34:18.436Z,21.80
2018-09-18T21:36:46.814Z,21.60
2018-09-18T21:39:15.145Z,21.60
2018-09-18T21:41:43.494Z,21.60
2018-09-18T21:44:12.510Z,21.50
2018-09-18T21:46:40.928Z,21.50
2018-09-18T21:49:09.348Z,21.50
2018-09-18T21:51:37.734Z,21.30
2018-09-18T21:54:06.243Z,21.40
2018-09-18T21:56:34.637Z,21.30
2018-09-18T21:59:03.208Z,21.30
2018-09-18T22:01:31.650Z,21.30
2018-09-18T22:03:59.966Z,21.20
2018-09-18T22:06:28.302Z,21.20
2018-09-18T22:08:56.718Z,21.00
2018-09-18T22:11:25.090Z,21.00
2018-09-18T22:13:53.458Z,21.00
2018-09-18T22:16:21.886Z,20.90
2018-09-18T22:18:50.284Z,20.80
2018-09-18T22:21:18.678Z,20.80
2018-09-18T22:23:47.044Z,20.80
2018-09-18T22:26:15.419Z,20.70
2018-09-18T22:28:43.749Z,20.70
2018-09-18T22:31:12.136Z,20.70
2018-09-18T22:33:40.578Z,20.60
2018-09-18T22:36:08.948Z,20.60
2018-09-18T22:38:37.280Z,20.50
2018-09-18T22:41:05.954Z,20.40
2018-09-18T22:43:34.381Z,20.30
2018-09-18T22:46:02.868Z,20.40
2018-09-18T22:48:31.209Z,20.30
2018-09-18T22:50:59.558Z,20.30
2018-09-18T22:53:28.767Z,20.20
2018-09-18T22:55:57.114Z,20.30
2018-09-18T22:58:25.514Z,20.20
2018-09-18T23:00:55.721Z,20.20
2018-09-18T23:03:24.132Z,20.10
2018-09-18T23:05:52.491Z,20.10
2018-09-18T23:08:20.857Z,20.00
2018-09-18T23:10:49.572Z,20.10
2018-09-18T23:13:17.947Z,20.10
2018-09-18T23:15:46.305Z,20.00
2018-09-18T23:18:14.703Z,20.00
2018-09-18T23:20:43.093Z,20.10
2018-09-18T23:23:11.473Z,20.10
2018-09-18T23:25:39.895Z,20.10
2018-09-18T23:28:08.609Z,20.10
2018-09-18T23:30:36.992Z,20.10
2018-09-18T23:33:05.568Z,20.00
2018-09-18T23:35:33.973Z,20.00
2018-09-18T23:38:02.367Z,20.00
2018-09-18T23:40:30.724Z,20.00
2018-09-18T23:42:59.053Z,20.00
2018-09-18T23:45:27.460Z,19.90
2018-09-18T23:47:55.810Z,19.80
2018-09-18T23:50:24.273Z,19.80
2018-09-18T23:52:53.080Z,19.80
2018-09-18T23:55:21.434Z,19.80
2018-09-18T23:57:50.133Z,19.80
